Time;durP1;ratioP1;P1;durP2;ratioP2;P2;SDS_P1;SDS_P2;PMS_P1;PMS_P2;Temp;Humidity;BMP_temperature;BMP_pressure;BME280_temperature;BME280_humidity;BME280_pressure;Samples;Min_cycle;Max_cycle;Signal;HPM_P1;HPM_P2
2023/08/30 00:00:02;;;;;;;10.00;9.00;;;;;;;13.32;100.00;100700.66;5062690;28;20035;-81
2023/08/30 00:02:28;;;;;;;10.07;9.07;;;;;;;13.33;100.00;100707.72;5062580;28;20012;-81
2023/08/30 00:05:02;;;;;;;10.23;9.23;;;;;;;13.29;100.00;100714.22;5059479;28;20339;-81
2023/08/30 00:07:27;;;;;;;9.48;8.55;;;;;;;13.28;100.00;100709.84;5063899;28;20039;-82
2023/08/30 00:09:52;;;;;;;10.15;8.93;;;;;;;13.29;100.00;100708.88;5066546;28;20443;-80
2023/08/30 00:12:18;;;;;;;10.43;8.68;;;;;;;13.27;100.00;100707.28;5065560;28;20032;-81
2023/08/30 00:14:43;;;;;;;9.50;8.52;;;;;;;13.23;100.00;100706.59;5066966;28;20475;-81
2023/08/30 00:17:09;;;;;;;9.88;8.32;;;;;;;13.26;100.00;100706.41;5068975;28;20035;-80
2023/08/30 00:19:34;;;;;;;10.75;9.20;;;;;;;13.11;100.00;100702.00;5064359;28;20135;-80
2023/08/30 00:22:00;;;;;;;10.85;9.05;;;;;;;13.00;100.00;100701.81;5050751;28;20036;-81
2023/08/30 00:24:26;;;;;;;10.07;8.82;;;;;;;12.94;100.00;100693.25;5058714;28;20638;-81
2023/08/30 00:26:51;;;;;;;10.35;9.25;;;;;;;12.86;100.00;100687.53;5078815;28;20028;-82
2023/08/30 00:29:17;;;;;;;9.90;8.73;;;;;;;12.75;100.00;100684.69;5062379;28;20033;-82
2023/08/30 00:31:42;;;;;;;10.20;9.20;;;;;;;12.74;100.00;100682.94;5059234;28;20491;-82
2023/08/30 00:34:07;;;;;;;9.65;8.73;;;;;;;12.67;100.00;100678.97;5059831;28;20398;-82
2023/08/30 00:36:33;;;;;;;10.35;9.25;;;;;;;12.66;100.00;100686.09;5061088;28;20374;-82
2023/08/30 00:38:58;;;;;;;9.70;8.70;;;;;;;12.58;100.00;100684.84;5075465;28;20065;-82
2023/08/30 00:41:23;;;;;;;10.70;8.68;;;;;;;12.55;100.00;100690.41;5067469;28;20138;-80
2023/08/30 00:43:49;;;;;;;9.55;8.40;;;;;;;12.46;100.00;100687.34;5066981;28;20020;-81
2023/08/30 00:46:15;;;;;;;9.35;8.48;;;;;;;12.41;100.00;100688.56;5066434;28;20185;-81
2023/08/30 00:48:42;;;;;;;12.25;9.15;;;;;;;12.34;100.00;100682.75;5059447;28;20028;-81
2023/08/30 00:51:07;;;;;;;10.15;9.13;;;;;;;12.39;100.00;100679.81;5064127;28;20029;-82
2023/08/30 00:53:32;;;;;;;9.93;8.73;;;;;;;12.28;100.00;100672.44;5059160;28;20033;-83
2023/08/30 00:55:58;;;;;;;9.52;8.60;;;;;;;12.24;100.00;100676.25;5063761;28;20017;-83
2023/08/30 00:58:26;;;;;;;9.65;8.57;;;;;;;12.20;100.00;100672.03;5064394;28;20098;-83
2023/08/30 01:00:52;;;;;;;10.10;9.10;;;;;;;12.14;100.00;100667.09;5064115;28;20478;-82
2023/08/30 01:03:17;;;;;;;9.70;8.77;;;;;;;12.11;100.00;100669.94;5062338;28;20051;-83
2023/08/30 01:05:43;;;;;;;9.95;8.98;;;;;;;12.05;100.00;100670.31;5055765;28;20467;-81
2023/08/30 01:08:08;;;;;;;10.40;9.38;;;;;;;12.00;100.00;100662.59;5056146;28;20043;-82
2023/08/30 01:10:58;;;;;;;10.30;9.35;;;;;;;11.98;100.00;100672.47;5056290;28;20036;-82
2023/08/30 01:13:30;;;;;;;9.88;8.77;;;;;;;11.96;100.00;100672.56;5053030;28;20256;-82
2023/08/30 01:15:57;;;;;;;10.48;9.35;;;;;;;11.87;100.00;100667.78;5054586;28;20051;-81
2023/08/30 01:18:26;;;;;;;10.35;9.45;;;;;;;11.84;100.00;100670.63;5054276;28;20120;-81
2023/08/30 01:20:53;;;;;;;10.45;9.43;;;;;;;11.79;100.00;100658.47;5055476;28;20039;-81
2023/08/30 01:23:29;;;;;;;10.57;9.50;;;;;;;11.79;100.00;100659.34;5054378;28;21727;-81
2023/08/30 01:26:08;;;;;;;11.40;10.30;;;;;;;11.72;100.00;100656.16;5056289;28;20106;-82
2023/08/30 01:28:37;;;;;;;11.45;10.35;;;;;;;11.71;100.00;100650.94;5054793;28;20127;-82
2023/08/30 01:31:05;;;;;;;11.55;10.35;;;;;;;11.67;100.00;100652.91;5056085;28;20082;-81
2023/08/30 01:33:31;;;;;;;11.60;10.40;;;;;;;11.71;100.00;100658.94;5078055;28;20096;-81
2023/08/30 01:35:59;;;;;;;11.90;10.80;;;;;;;11.67;100.00;100654.72;5064019;28;20107;-81
2023/08/30 01:38:29;;;;;;;12.88;10.73;;;;;;;11.68;100.00;100653.78;5065485;28;20033;-82
2023/08/30 01:40:57;;;;;;;12.25;11.00;;;;;;;11.56;100.00;100647.34;5064443;28;20520;-82
2023/08/30 01:43:26;;;;;;;13.00;11.70;;;;;;;11.56;100.00;100657.16;5063486;28;20086;-81
2023/08/30 01:45:52;;;;;;;13.05;11.73;;;;;;;11.49;100.00;100640.66;5063686;28;20024;-81
2023/08/30 01:48:18;;;;;;;13.48;12.18;;;;;;;11.45;100.00;100644.44;5061783;28;20078;-81
2023/08/30 01:50:45;;;;;;;13.82;11.93;;;;;;;11.42;100.00;100650.81;5086870;28;20035;-81
2023/08/30 01:53:12;;;;;;;13.80;12.50;;;;;;;11.40;100.00;100652.69;5060848;28;20029;-81
2023/08/30 01:55:38;;;;;;;14.00;12.20;;;;;;;11.36;100.00;100645.81;5063321;28;20020;-81
2023/08/30 01:58:05;;;;;;;16.48;12.88;;;;;;;11.39;100.00;100650.97;5056764;28;20098;-80
2023/08/30 02:00:30;;;;;;;14.30;12.80;;;;;;;11.35;100.00;100649.44;5066570;28;20025;-80
2023/08/30 02:02:57;;;;;;;13.70;12.35;;;;;;;11.30;100.00;100646.19;5066685;28;20090;-82
2023/08/30 02:05:22;;;;;;;13.50;11.82;;;;;;;11.33;100.00;100646.03;5081462;28;20488;-82
2023/08/30 02:08:09;;;;;;;13.43;12.02;;;;;;;11.33;100.00;100638.03;5062501;28;20025;-82
2023/08/30 02:10:40;;;;;;;13.75;12.13;;;;;;;11.37;100.00;100647.56;5065454;28;20020;-82
2023/08/30 02:13:06;;;;;;;14.38;12.98;;;;;;;11.38;100.00;100643.09;5066557;28;20240;-82
2023/08/30 02:15:34;;;;;;;15.07;12.82;;;;;;;11.37;100.00;100642.22;5065935;28;20524;-82
2023/08/30 02:18:00;;;;;;;13.48;12.07;;;;;;;11.36;100.00;100636.97;5064044;28;20247;-82
2023/08/30 02:20:27;;;;;;;15.63;12.80;;;;;;;11.38;100.00;100638.63;5066312;28;20055;-82
2023/08/30 02:22:52;;;;;;;13.77;12.05;;;;;;;11.44;100.00;100638.25;5066861;28;20431;-82
2023/08/30 02:25:17;;;;;;;14.35;12.95;;;;;;;11.51;100.00;100637.91;5065870;28;20024;-82
2023/08/30 02:27:43;;;;;;;13.85;12.35;;;;;;;11.57;100.00;100626.88;5067360;28;20045;-82
2023/08/30 02:30:08;;;;;;;14.23;12.80;;;;;;;11.66;100.00;100626.34;5066845;28;20073;-82
2023/08/30 02:32:34;;;;;;;13.85;12.40;;;;;;;11.77;100.00;100634.56;5067159;28;20423;-81
2023/08/30 02:35:01;;;;;;;13.57;12.18;;;;;;;11.83;100.00;100622.69;5065812;28;20029;-82
2023/08/30 02:37:27;;;;;;;14.60;12.20;;;;;;;11.89;100.00;100620.53;5067493;28;20119;-81
2023/08/30 02:39:52;;;;;;;13.73;11.85;;;;;;;11.87;100.00;100611.78;5069409;28;20725;-81
2023/08/30 02:42:17;;;;;;;13.50;12.10;;;;;;;12.00;100.00;100619.91;5066399;28;20497;-82
2023/08/30 02:44:43;;;;;;;13.25;11.93;;;;;;;12.05;100.00;100620.47;5057100;28;20394;-81
2023/08/30 02:47:08;;;;;;;12.65;11.35;;;;;;;12.06;100.00;100621.34;5072519;28;20025;-81
2023/08/30 02:49:34;;;;;;;12.95;11.65;;;;;;;12.05;100.00;100612.47;5074210;28;20078;-81
2023/08/30 02:51:59;;;;;;;11.90;10.82;;;;;;;12.10;100.00;100614.88;5074407;28;20094;-82
2023/08/30 02:54:25;;;;;;;12.43;11.23;;;;;;;12.13;100.00;100612.03;5063340;28;20028;-81
2023/08/30 02:56:50;;;;;;;12.57;11.07;;;;;;;12.14;100.00;100611.06;5076461;28;20032;-81
2023/08/30 02:59:16;;;;;;;12.70;11.50;;;;;;;12.18;100.00;100607.25;5078198;28;20059;-81
2023/08/30 03:01:41;;;;;;;13.57;12.02;;;;;;;12.21;100.00;100601.72;5073381;28;20055;-81
2023/08/30 03:04:07;;;;;;;15.35;13.75;;;;;;;12.18;100.00;100604.59;5075053;28;20526;-81
2023/08/30 03:06:34;;;;;;;14.30;12.85;;;;;;;12.22;100.00;100603.44;5070693;28;20039;-81
2023/08/30 03:09:00;;;;;;;14.10;12.70;;;;;;;12.17;100.00;100592.19;5059421;28;20029;-82
2023/08/30 03:11:25;;;;;;;14.93;13.43;;;;;;;12.22;100.00;100598.09;5067126;28;20086;-81
2023/08/30 03:13:53;;;;;;;15.27;13.77;;;;;;;12.19;100.00;100588.47;5065512;28;20119;-81
2023/08/30 03:16:18;;;;;;;15.35;13.57;;;;;;;12.19;100.00;100598.28;5065689;28;20021;-81
2023/08/30 03:18:44;;;;;;;15.73;14.00;;;;;;;12.20;100.00;100595.50;5075756;28;20518;-82
2023/08/30 03:21:10;;;;;;;14.43;12.93;;;;;;;12.23;100.00;100597.16;5065355;28;20032;-80
2023/08/30 03:23:36;;;;;;;14.15;12.75;;;;;;;12.25;100.00;100597.03;5067237;28;20024;-81
2023/08/30 03:26:12;;;;;;;14.93;13.43;;;;;;;12.29;100.00;100598.56;5065038;28;20410;-80
2023/08/30 03:28:38;;;;;;;15.40;13.73;;;;;;;12.28;100.00;100588.84;5064574;28;20052;-81
2023/08/30 03:31:19;;;;;;;15.30;13.77;;;;;;;12.27;100.00;100593.34;5063477;28;20040;-80
2023/08/30 03:33:46;;;;;;;15.40;13.82;;;;;;;12.29;100.00;100582.56;5066273;28;20068;-80
2023/08/30 03:36:14;;;;;;;16.83;14.77;;;;;;;12.30;100.00;100584.28;5063628;28;20143;-81
2023/08/30 03:38:40;;;;;;;15.85;14.25;;;;;;;12.33;100.00;100576.06;5056898;28;20107;-80
2023/08/30 03:41:06;;;;;;;14.95;13.25;;;;;;;12.30;100.00;100557.59;5066912;28;20106;-81
2023/08/30 03:43:32;;;;;;;15.77;14.18;;;;;;;12.34;100.00;100568.00;5059382;28;20423;-81
2023/08/30 03:46:01;;;;;;;15.80;14.20;;;;;;;12.28;100.00;100552.34;5062969;28;20039;-81
2023/08/30 03:48:27;;;;;;;17.20;15.40;;;;;;;12.38;100.00;100555.31;5062527;28;20097;-81
2023/08/30 03:50:54;;;;;;;15.88;14.27;;;;;;;12.40;100.00;100548.06;5076718;28;20097;-80
2023/08/30 03:53:19;;;;;;;15.45;13.85;;;;;;;12.41;100.00;100542.59;5063557;28;20097;-81
2023/08/30 03:55:44;;;;;;;16.00;14.50;;;;;;;12.41;100.00;100537.28;5061949;28;20099;-80
2023/08/30 03:58:11;;;;;;;17.48;15.23;;;;;;;12.41;100.00;100525.75;5064021;28;20045;-81
2023/08/30 04:00:38;;;;;;;17.27;15.65;;;;;;;12.41;100.00;100523.94;5063345;28;20043;-79
2023/08/30 04:03:04;;;;;;;17.52;15.75;;;;;;;12.43;100.00;100515.84;5062906;28;20780;-80
2023/08/30 04:05:36;;;;;;;18.67;16.88;;;;;;;12.42;100.00;100520.31;5076674;28;20096;-81
2023/08/30 04:08:03;;;;;;;18.17;16.35;;;;;;;12.35;100.00;100507.47;5057258;28;20169;-81
2023/08/30 04:10:28;;;;;;;18.52;16.55;;;;;;;12.28;100.00;100506.97;5063845;28;20312;-81
2023/08/30 04:12:54;;;;;;;22.58;16.77;;;;;;;12.12;100.00;100503.56;5051687;28;20513;-81
2023/08/30 04:15:19;;;;;;;18.58;16.77;;;;;;;12.01;100.00;100506.91;5059491;28;20452;-81
2023/08/30 04:17:44;;;;;;;18.35;16.45;;;;;;;11.95;100.00;100499.28;5062854;28;20051;-81
2023/08/30 04:20:10;;;;;;;18.20;16.38;;;;;;;11.84;100.00;100483.97;5062447;28;20024;-81
2023/08/30 04:22:36;;;;;;;17.55;15.85;;;;;;;11.77;100.00;100487.91;5061213;28;20028;-81
2023/08/30 04:25:01;;;;;;;19.90;17.40;;;;;;;11.76;100.00;100493.34;5059912;28;20491;-82
2023/08/30 04:27:27;;;;;;;19.58;17.55;;;;;;;11.72;100.00;100493.53;5063187;28;20044;-81
2023/08/30 04:29:52;;;;;;;19.88;17.88;;;;;;;11.68;100.00;100496.47;5061783;28;20039;-82
2023/08/30 04:32:18;;;;;;;20.33;18.27;;;;;;;11.62;100.00;100497.72;5062375;28;20476;-82
2023/08/30 04:34:43;;;;;;;20.50;18.17;;;;;;;11.63;100.00;100493.25;5077472;28;20395;-81
2023/08/30 04:37:09;;;;;;;19.02;17.13;;;;;;;11.65;100.00;100496.66;5061804;28;20124;-81
2023/08/30 04:39:34;;;;;;;19.08;16.67;;;;;;;11.66;100.00;100491.25;5063591;28;20483;-81
2023/08/30 04:42:00;;;;;;;19.45;17.42;;;;;;;11.70;100.00;100481.22;5063688;28;20029;-81
2023/08/30 04:44:27;;;;;;;18.63;16.58;;;;;;;11.80;100.00;100486.88;5058488;28;20035;-81
2023/08/30 04:46:53;;;;;;;19.17;17.38;;;;;;;11.83;100.00;100481.38;5044154;28;20151;-81
2023/08/30 04:49:19;;;;;;;18.90;16.98;;;;;;;11.92;100.00;100483.50;5061918;28;20036;-82
2023/08/30 04:51:44;;;;;;;18.70;16.75;;;;;;;11.96;100.00;100480.53;5062911;28;20102;-81
2023/08/30 04:54:10;;;;;;;18.65;16.70;;;;;;;12.05;100.00;100483.59;5064065;28;20024;-81
2023/08/30 04:56:35;;;;;;;19.20;17.40;;;;;;;12.04;100.00;100481.84;5061520;28;20078;-82
2023/08/30 04:59:03;;;;;;;18.50;16.67;;;;;;;12.09;100.00;100477.09;5063783;28;20140;-82
2023/08/30 05:01:30;;;;;;;19.00;17.02;;;;;;;12.08;100.00;100470.91;5073084;28;20029;-81
2023/08/30 05:03:55;;;;;;;18.45;16.55;;;;;;;12.12;100.00;100472.44;5062437;28;20028;-82
2023/08/30 05:06:20;;;;;;;18.85;16.38;;;;;;;12.16;100.00;100473.06;5062878;28;20054;-82
2023/08/30 05:08:46;;;;;;;19.85;17.38;;;;;;;12.19;100.00;100470.22;5062749;28;20088;-82
2023/08/30 05:11:11;;;;;;;18.80;17.10;;;;;;;12.23;100.00;100466.41;5063313;28;20059;-82
2023/08/30 05:13:37;;;;;;;18.50;16.60;;;;;;;12.20;100.00;100455.91;5062396;28;20509;-82
2023/08/30 05:16:03;;;;;;;18.23;16.25;;;;;;;12.30;100.00;100457.06;5063580;28;20024;-82
2023/08/30 05:18:28;;;;;;;19.48;16.88;;;;;;;12.37;100.00;100462.84;5064424;28;20105;-82
2023/08/30 05:20:53;;;;;;;18.00;16.13;;;;;;;12.32;100.00;100443.59;5081596;28;20187;-82
2023/08/30 05:23:19;;;;;;;17.55;15.85;;;;;;;12.43;100.00;100457.13;5064865;28;20032;-82
2023/08/30 05:25:44;;;;;;;16.98;15.27;;;;;;;12.43;100.00;100460.66;5069747;28;20585;-81
2023/08/30 05:28:09;;;;;;;18.10;16.30;;;;;;;12.50;100.00;100460.22;5071039;28;20048;-81
2023/08/30 05:30:35;;;;;;;18.75;16.17;;;;;;;12.52;100.00;100458.34;5063691;28;20370;-81
2023/08/30 05:33:00;;;;;;;16.95;15.27;;;;;;;12.54;100.00;100446.63;5064464;28;20043;-82
2023/08/30 05:35:26;;;;;;;17.08;15.27;;;;;;;12.63;100.00;100450.50;5065210;28;20043;-82
2023/08/30 05:37:51;;;;;;;17.27;15.43;;;;;;;12.67;100.00;100447.50;5065725;28;20039;-81
2023/08/30 05:40:17;;;;;;;19.27;15.70;;;;;;;12.71;100.00;100440.16;5067621;28;20484;-81
2023/08/30 05:42:43;;;;;;;17.13;15.32;;;;;;;12.66;100.00;100432.44;5084796;28;20041;-81
2023/08/30 05:45:09;;;;;;;17.33;15.63;;;;;;;12.72;100.00;100436.53;5069788;28;20035;-82
2023/08/30 05:47:34;;;;;;;16.60;15.00;;;;;;;12.75;100.00;100433.66;5068521;28;20503;-81
2023/08/30 05:50:02;;;;;;;16.65;15.10;;;;;;;12.82;100.00;100440.28;5064921;28;20067;-82
2023/08/30 05:52:28;;;;;;;18.80;15.95;;;;;;;12.85;100.00;100437.41;5069235;28;20509;-82
2023/08/30 05:54:53;;;;;;;17.20;15.50;;;;;;;12.91;100.00;100436.16;5083433;28;20183;-82
2023/08/30 05:57:18;;;;;;;17.65;15.95;;;;;;;12.94;100.00;100431.47;5067205;28;20028;-80
2023/08/30 05:59:44;;;;;;;17.35;15.75;;;;;;;12.99;100.00;100430.28;5062100;28;20028;-82
2023/08/30 06:02:10;;;;;;;17.52;15.73;;;;;;;13.08;100.00;100427.84;5063587;28;20021;-81
2023/08/30 06:04:35;;;;;;;16.63;14.95;;;;;;;13.15;100.00;100422.94;5061643;28;20421;-82
2023/08/30 06:07:01;;;;;;;16.67;15.05;;;;;;;13.23;100.00;100423.31;5060551;28;20507;-84
2023/08/30 06:09:27;;;;;;;16.80;15.10;;;;;;;13.28;100.00;100423.84;5062021;28;20025;-81
2023/08/30 06:11:52;;;;;;;17.17;15.40;;;;;;;13.31;100.00;100426.31;5064448;28;20055;-84
2023/08/30 06:14:18;;;;;;;18.70;15.15;;;;;;;13.28;100.00;100407.81;5060777;28;20036;-83
2023/08/30 06:16:44;;;;;;;17.38;15.57;;;;;;;13.29;100.00;100409.50;5062908;28;20477;-85
2023/08/30 06:19:12;;;;;;;17.38;15.73;;;;;;;13.38;100.00;100411.56;5065201;28;20029;-83
2023/08/30 06:21:37;;;;;;;18.70;16.30;;;;;;;13.45;100.00;100409.31;5063986;28;20103;-82
2023/08/30 06:24:03;;;;;;;16.70;15.02;;;;;;;13.52;100.00;100402.59;5064921;28;20442;-82
2023/08/30 06:26:29;;;;;;;16.45;14.73;;;;;;;13.60;100.00;100391.34;5079634;28;20028;-82
2023/08/30 06:28:54;;;;;;;19.85;15.23;;;;;;;13.68;100.00;100402.38;5056648;28;20055;-83
2023/08/30 06:31:20;;;;;;;18.02;14.90;;;;;;;13.78;100.00;100403.41;5061769;28;20016;-83
2023/08/30 06:33:45;;;;;;;16.85;15.13;;;;;;;13.81;100.00;100405.03;5060694;28;20089;-83
2023/08/30 06:36:15;;;;;;;16.27;14.65;;;;;;;13.94;100.00;100408.53;5060604;28;20398;-84
2023/08/30 06:38:41;;;;;;;16.98;14.18;;;;;;;14.05;100.00;100400.59;5057731;28;20122;-84
2023/08/30 06:41:06;;;;;;;16.10;14.40;;;;;;;14.01;100.00;100398.25;5064439;28;20418;-83
2023/08/30 06:43:32;;;;;;;16.05;14.35;;;;;;;14.07;100.00;100411.19;5065651;28;20482;-83
2023/08/30 06:45:59;;;;;;;18.58;16.67;;;;;;;13.93;100.00;100407.69;5057697;28;20135;-82
2023/08/30 06:48:24;;;;;;;16.73;15.02;;;;;;;13.68;100.00;100399.69;5067218;28;20024;-84
2023/08/30 06:50:49;;;;;;;16.80;15.05;;;;;;;13.49;100.00;100404.63;5063221;28;20032;-83
2023/08/30 06:53:15;;;;;;;16.50;14.80;;;;;;;13.27;100.00;100415.94;5059277;28;20071;-84
2023/08/30 06:55:40;;;;;;;17.30;15.45;;;;;;;13.06;100.00;100410.22;5062701;28;20569;-83
2023/08/30 06:58:06;;;;;;;18.30;15.45;;;;;;;12.94;100.00;100407.41;5067510;28;20068;-84
2023/08/30 07:00:31;;;;;;;17.67;15.77;;;;;;;12.90;100.00;100416.59;5056105;28;20035;-83
2023/08/30 07:02:56;;;;;;;18.67;16.50;;;;;;;12.85;100.00;100405.38;5062188;28;20565;-84
2023/08/30 07:05:22;;;;;;;18.20;15.77;;;;;;;12.84;100.00;100409.00;5063980;28;20029;-83
2023/08/30 07:07:48;;;;;;;17.35;15.60;;;;;;;12.73;100.00;100416.88;5065066;28;20188;-81
2023/08/30 07:10:14;;;;;;;18.73;16.75;;;;;;;12.60;100.00;100407.97;5056673;28;20475;-82
2023/08/30 07:12:39;;;;;;;19.48;17.48;;;;;;;12.54;100.00;100405.69;5058589;28;20039;-82
2023/08/30 07:15:05;;;;;;;20.52;17.70;;;;;;;12.62;100.00;100416.72;5059208;28;20584;-82
2023/08/30 07:17:33;;;;;;;23.63;19.75;;;;;;;12.54;100.00;100411.03;5052861;28;20036;-82
2023/08/30 07:19:59;;;;;;;23.48;19.15;;;;;;;12.44;100.00;100400.09;5060445;28;20040;-81
2023/08/30 07:22:25;;;;;;;22.73;18.90;;;;;;;12.48;100.00;100400.75;5055345;28;20067;-82
2023/08/30 07:24:51;;;;;;;21.10;18.90;;;;;;;12.43;100.00;100396.59;5051242;28;20440;-82
2023/08/30 07:27:16;;;;;;;21.02;18.60;;;;;;;12.42;100.00;100397.56;5075449;28;20513;-83
2023/08/30 07:29:41;;;;;;;20.70;18.48;;;;;;;12.41;100.00;100389.63;5057907;28;20063;-82
2023/08/30 07:32:07;;;;;;;18.08;15.55;;;;;;;12.25;100.00;100378.22;5058101;28;20083;-82
2023/08/30 07:34:33;;;;;;;20.58;17.55;;;;;;;12.34;100.00;100385.66;5056294;28;20051;-82
2023/08/30 07:36:59;;;;;;;21.80;17.67;;;;;;;12.36;100.00;100384.59;5056980;28;20063;-81
2023/08/30 07:39:24;;;;;;;20.17;18.05;;;;;;;12.46;100.00;100379.53;5053254;28;20581;-81
2023/08/30 07:41:50;;;;;;;21.77;16.02;;;;;;;12.47;100.00;100373.22;5070887;28;20263;-81
2023/08/30 07:44:16;;;;;;;15.55;13.82;;;;;;;12.39;100.00;100368.38;5061683;28;20048;-81
2023/08/30 07:46:41;;;;;;;14.15;12.25;;;;;;;12.41;100.00;100371.78;5056979;28;20029;-81
2023/08/30 07:49:06;;;;;;;16.00;13.25;;;;;;;12.40;100.00;100366.56;5061259;28;20024;-81
2023/08/30 07:51:32;;;;;;;14.00;11.93;;;;;;;12.38;100.00;100366.69;5063366;28;20032;-81
2023/08/30 07:53:57;;;;;;;13.98;11.18;;;;;;;12.35;100.00;100364.22;5054984;28;20119;-81
2023/08/30 07:56:23;;;;;;;12.48;10.85;;;;;;;12.32;100.00;100364.41;5061897;28;20028;-81
2023/08/30 07:58:48;;;;;;;13.20;11.10;;;;;;;12.28;100.00;100367.38;5061882;28;20487;-80
2023/08/30 08:01:14;;;;;;;11.68;10.48;;;;;;;12.34;100.00;100358.97;5058752;28;20834;-81
2023/08/30 08:03:41;;;;;;;12.02;9.85;;;;;;;12.39;100.00;100370.19;5056430;28;20246;-81
2023/08/30 08:06:06;;;;;;;13.38;10.23;;;;;;;12.39;100.00;100364.88;5058128;28;20024;-81
2023/08/30 08:08:31;;;;;;;11.40;10.20;;;;;;;12.48;100.00;100363.41;5067896;28;20047;-81
2023/08/30 08:10:58;;;;;;;13.93;11.70;;;;;;;12.61;100.00;100366.94;5066041;28;20059;-82
2023/08/30 08:13:24;;;;;;;15.60;11.93;;;;;;;12.69;100.00;100365.47;5072111;28;20116;-81
2023/08/30 08:15:49;;;;;;;11.88;10.60;;;;;;;12.57;100.00;100355.63;5060004;28;20119;-81
2023/08/30 08:18:15;;;;;;;11.13;10.00;;;;;;;12.55;100.00;100362.88;5052061;28;20475;-81
2023/08/30 08:20:40;;;;;;;10.88;9.77;;;;;;;12.50;100.00;100358.78;5069358;28;20054;-81
2023/08/30 08:23:06;;;;;;;11.98;9.85;;;;;;;12.50;100.00;100357.00;5075228;28;20028;-81
2023/08/30 08:25:34;;;;;;;10.40;9.07;;;;;;;12.50;100.00;100362.34;5064770;28;20028;-82
2023/08/30 08:28:00;;;;;;;11.30;10.10;;;;;;;12.48;100.00;100371.41;5072859;28;20470;-82
2023/08/30 08:30:25;;;;;;;10.82;9.60;;;;;;;12.43;100.00;100367.22;5065769;28;20036;-82
2023/08/30 08:32:51;;;;;;;10.88;9.10;;;;;;;12.41;100.00;100366.44;5067407;28;20699;-81
2023/08/30 08:35:16;;;;;;;12.98;9.90;;;;;;;12.41;100.00;100363.78;5068486;28;20032;-82
2023/08/30 08:37:42;;;;;;;10.77;9.63;;;;;;;12.40;100.00;100347.88;5068345;28;20071;-82
2023/08/30 08:40:10;;;;;;;10.55;9.43;;;;;;;12.46;100.00;100364.38;5068295;28;20507;-82
2023/08/30 08:42:36;;;;;;;10.75;9.52;;;;;;;12.49;100.00;100360.63;5067382;28;20033;-82
2023/08/30 08:45:04;;;;;;;8.93;8.02;;;;;;;12.46;100.00;100369.69;5080708;28;20205;-83
2023/08/30 08:47:32;;;;;;;9.68;8.68;;;;;;;12.48;100.00;100360.72;5069286;28;20094;-84
2023/08/30 08:49:59;;;;;;;12.50;9.32;;;;;;;12.39;100.00;100348.84;5072418;28;20056;-84
2023/08/30 08:52:24;;;;;;;10.80;8.70;;;;;;;12.56;100.00;100361.94;5072472;28;20110;-84
2023/08/30 08:54:51;;;;;;;12.27;9.02;;;;;;;12.75;100.00;100358.88;5082229;28;20028;-84
2023/08/30 08:57:17;;;;;;;10.13;9.13;;;;;;;12.85;100.00;100359.97;5078819;28;20030;-83
2023/08/30 08:59:43;;;;;;;10.88;9.70;;;;;;;12.83;100.00;100359.22;5079000;28;20088;-84
2023/08/30 09:02:12;;;;;;;11.18;9.98;;;;;;;12.83;100.00;100367.25;5085596;28;20020;-84
2023/08/30 09:04:39;;;;;;;10.35;9.25;;;;;;;12.79;100.00;100368.41;5070697;28;20086;-84
2023/08/30 09:07:04;;;;;;;11.43;10.23;;;;;;;12.79;100.00;100367.53;5068063;28;20410;-84
2023/08/30 09:09:30;;;;;;;11.55;10.27;;;;;;;12.73;100.00;100357.28;5073897;28;20024;-84
2023/08/30 09:11:56;;;;;;;11.63;10.52;;;;;;;12.70;100.00;100351.16;5075010;28;20043;-84
2023/08/30 09:14:21;;;;;;;12.00;10.90;;;;;;;12.84;100.00;100363.59;5075396;28;20105;-83
2023/08/30 09:16:56;;;;;;;12.38;11.18;;;;;;;12.83;100.00;100367.25;5057862;28;20040;-84
2023/08/30 09:19:22;;;;;;;11.90;10.70;;;;;;;12.86;100.00;100361.66;5059954;28;20033;-85
2023/08/30 09:22:05;;;;;;;11.60;10.35;;;;;;;12.98;100.00;100368.00;5065479;28;20489;-86
2023/08/30 09:24:39;;;;;;;11.13;10.02;;;;;;;12.95;100.00;100357.50;5060779;28;20021;-84
2023/08/30 09:27:05;;;;;;;;;;;;;;;13.05;100.00;100374.63;5062638;28;20025;-85
2023/08/30 09:29:31;;;;;;;9.35;8.40;;;;;;;12.90;100.00;100373.00;5058772;28;20394;-85
2023/08/30 09:31:57;;;;;;;9.60;8.60;;;;;;;12.98;100.00;100377.84;5067987;28;20086;-86
2023/08/30 09:34:26;;;;;;;9.07;8.18;;;;;;;12.99;100.00;100371.53;5067503;28;20040;-83
2023/08/30 09:36:52;;;;;;;8.90;8.00;;;;;;;12.90;100.00;100365.84;5065092;28;20334;-84
2023/08/30 09:39:17;;;;;;;9.13;8.25;;;;;;;12.99;100.00;100367.03;5067262;28;20021;-84
2023/08/30 09:41:48;;;;;;;9.35;8.45;;;;;;;13.01;100.00;100365.13;5067604;28;20109;-85
2023/08/30 09:44:14;;;;;;;8.60;7.82;;;;;;;13.02;100.00;100372.16;5066344;28;20021;-84
2023/08/30 09:46:51;;;;;;;8.45;7.60;;;;;;;13.11;100.00;100360.00;5067120;28;20039;-84
2023/08/30 09:49:20;;;;;;;9.35;8.45;;;;;;;13.23;100.00;100351.16;5064307;28;20055;-84
2023/08/30 09:51:47;;;;;;;9.27;8.40;;;;;;;13.54;100.00;100360.53;5063173;28;20028;-84
2023/08/30 09:54:18;;;;;;;8.77;7.88;;;;;;;13.79;100.00;100370.34;5062751;28;20244;-85
2023/08/30 09:56:45;;;;;;;7.82;7.20;;;;;;;14.22;100.00;100344.97;5061240;28;20429;-84
2023/08/30 09:59:14;;;;;;;8.68;7.78;;;;;;;14.86;100.00;100366.94;5065367;28;20036;-83
2023/08/30 10:01:40;;;;;;;7.40;6.70;;;;;;;15.15;100.00;100354.84;5065612;28;20462;-83
2023/08/30 10:04:10;;;;;;;6.45;5.95;;;;;;;15.25;100.00;100362.16;5062708;28;20055;-85
2023/08/30 10:06:39;;;;;;;5.10;4.68;;;;;;;15.53;100.00;100352.81;5058954;28;20032;-83
2023/08/30 10:09:10;;;;;;;6.07;5.53;;;;;;;15.47;100.00;100345.22;5060237;28;20032;-83
2023/08/30 10:11:37;;;;;;;5.72;5.22;;;;;;;15.75;100.00;100344.78;5055606;28;20067;-83
2023/08/30 10:14:04;;;;;;;7.00;5.82;;;;;;;16.64;100.00;100350.91;5058759;28;20025;-83
2023/08/30 10:16:41;;;;;;;4.93;4.53;;;;;;;16.49;100.00;100357.56;5061925;28;20036;-83
2023/08/30 10:19:16;;;;;;;5.18;4.68;;;;;;;15.96;100.00;100336.81;5064737;28;20052;-84
2023/08/30 10:21:43;;;;;;;5.82;5.30;;;;;;;16.00;100.00;100338.28;5062074;28;20451;-84
2023/08/30 10:24:12;;;;;;;5.70;5.15;;;;;;;16.14;100.00;100342.53;5062516;28;20036;-83
2023/08/30 10:26:41;;;;;;;7.28;6.57;;;;;;;16.27;100.00;100345.06;5063211;28;20020;-82
2023/08/30 10:29:08;;;;;;;6.45;5.78;;;;;;;16.43;100.00;100335.59;5065750;28;20486;-83
2023/08/30 10:31:33;;;;;;;6.43;5.93;;;;;;;17.04;100.00;100336.78;5066870;28;20052;-84
2023/08/30 10:33:59;;;;;;;5.55;5.05;;;;;;;17.85;100.00;100321.63;5062646;28;20067;-84
2023/08/30 10:36:26;;;;;;;5.45;4.95;;;;;;;18.68;100.00;100339.16;5064089;28;20028;-81
2023/08/30 10:38:53;;;;;;;5.10;4.63;;;;;;;19.42;100.00;100339.34;5058455;28;20514;-83
2023/08/30 10:41:23;;;;;;;5.20;4.80;;;;;;;19.60;99.64;100343.94;5061463;28;20025;-85
2023/08/30 10:43:54;;;;;;;5.80;4.95;;;;;;;20.07;96.73;100330.41;5078690;28;20078;-85
2023/08/30 10:46:33;;;;;;;4.10;3.80;;;;;;;20.68;92.85;100337.78;5060355;28;20454;-87
2023/08/30 10:49:14;;;;;;;4.05;3.65;;;;;;;21.71;87.75;100338.00;5069910;28;20028;-82
2023/08/30 10:51:40;;;;;;;4.28;3.88;;;;;;;22.64;81.61;100325.22;5059746;28;20540;-84
2023/08/30 10:54:16;;;;;;;3.92;3.33;;;;;;;23.82;74.66;100329.13;5062062;28;20084;-83
2023/08/30 10:56:59;;;;;;;3.83;3.45;;;;;;;24.59;69.75;100331.13;5060788;28;20028;-86
2023/08/30 10:59:25;;;;;;;3.75;3.45;;;;;;;25.20;63.73;100334.69;5069344;28;20423;-84
2023/08/30 11:01:52;;;;;;;3.70;3.40;;;;;;;25.65;61.86;100321.94;5069678;28;20035;-83
2023/08/30 11:04:18;;;;;;;4.10;3.80;;;;;;;24.47;61.10;100327.97;5082477;28;20474;-84